Time;durP1;ratioP1;P1;durP2;ratioP2;P2;SDS_P1;SDS_P2;PMS_P1;PMS_P2;Temp;Humidity;BMP_temperature;BMP_pressure;BME280_temperature;BME280_humidity;BME280_pressure;Samples;Min_cycle;Max_cycle;Signal;HPM_P1;HPM_P2
2022/03/28 00:02:21;;;;;;;14.73;13.23;;;;;;;5.68;100.00;97958.44;4984560;28;20401;-55
2022/03/28 00:04:49;;;;;;;13.60;12.30;;;;;;;5.59;100.00;97956.63;4969136;28;20249;-56
2022/03/28 00:07:17;;;;;;;15.33;13.83;;;;;;;5.55;100.00;97955.22;5002106;28;20371;-55
2022/03/28 00:09:45;;;;;;;13.20;11.97;;;;;;;5.56;100.00;97954.28;5005321;28;20228;-57
2022/03/28 00:12:13;;;;;;;13.93;12.67;;;;;;;5.52;100.00;97958.13;4994720;28;20292;-57
2022/03/28 00:14:42;;;;;;;13.70;12.20;;;;;;;5.38;100.00;97956.69;5003425;28;20628;-56
2022/03/28 00:17:10;;;;;;;14.10;12.67;;;;;;;5.47;100.00;97958.50;4991514;28;20200;-55
2022/03/28 00:19:39;;;;;;;14.87;13.37;;;;;;;5.35;100.00;97950.72;4966098;28;20637;-56
2022/03/28 00:22:07;;;;;;;15.83;14.07;;;;;;;5.35;100.00;97952.50;5003241;28;20288;-58
2022/03/28 00:24:36;;;;;;;16.07;13.23;;;;;;;5.40;100.00;97947.69;5002970;28;20273;-55
2022/03/28 00:27:04;;;;;;;13.57;12.13;;;;;;;5.37;100.00;97947.97;5009088;28;20648;-55
2022/03/28 00:29:32;;;;;;;15.67;14.03;;;;;;;5.43;100.00;97941.34;5007013;28;20888;-55
2022/03/28 00:32:00;;;;;;;15.67;14.07;;;;;;;5.48;100.00;97945.22;4986261;28;21485;-52
2022/03/28 00:34:29;;;;;;;15.30;13.70;;;;;;;5.38;100.00;97936.47;5001118;28;20224;-54
2022/03/28 00:36:59;;;;;;;16.70;14.90;;;;;;;5.28;100.00;97935.63;4979297;28;20220;-57
2022/03/28 00:39:27;;;;;;;14.80;13.27;;;;;;;5.30;100.00;97937.16;5007585;28;20242;-56
2022/03/28 00:41:55;;;;;;;14.40;13.07;;;;;;;5.21;100.00;97933.53;5007168;28;21112;-55
2022/03/28 00:44:23;;;;;;;15.30;13.80;;;;;;;5.24;100.00;97929.78;5005797;28;20212;-54
2022/03/28 00:46:51;;;;;;;13.90;12.53;;;;;;;5.34;100.00;97932.47;5004947;28;20425;-54
2022/03/28 00:49:20;;;;;;;14.73;13.23;;;;;;;5.23;100.00;97933.38;4992644;28;20593;-54
2022/03/28 00:51:48;;;;;;;17.23;15.23;;;;;;;5.21;100.00;97935.31;4966623;28;20213;-53
2022/03/28 00:54:17;;;;;;;22.37;17.30;;;;;;;5.26;100.00;97932.28;5007770;28;20286;-56
2022/03/28 00:56:47;;;;;;;17.93;15.53;;;;;;;5.29;100.00;97929.41;5006133;28;20757;-54
2022/03/28 00:59:15;;;;;;;17.67;15.80;;;;;;;5.19;100.00;97919.69;5008900;28;20561;-55
2022/03/28 01:01:44;;;;;;;17.03;14.93;;;;;;;5.19;100.00;97924.94;4980969;28;20411;-53
2022/03/28 01:04:13;;;;;;;15.47;13.67;;;;;;;5.20;100.00;97921.34;4986121;28;20205;-53
2022/03/28 01:06:41;;;;;;;14.70;13.20;;;;;;;5.16;100.00;97916.47;4972838;28;20816;-53
2022/03/28 01:09:09;;;;;;;15.63;14.13;;;;;;;5.14;100.00;97916.63;5007136;28;20210;-55
2022/03/28 01:11:41;;;;;;;13.80;12.07;;;;;;;5.10;100.00;97909.13;5003134;28;20498;-56
2022/03/28 01:14:09;;;;;;;14.67;13.23;;;;;;;4.95;100.00;97909.47;5007540;28;20225;-56
2022/03/28 01:18:05;;;;;;;14.47;12.97;;;;;;;4.86;100.00;97899.72;4998348;28;20252;-53
2022/03/28 01:19:24;;;;;;;14.80;13.17;;;;;;;4.92;100.00;97900.06;4983057;28;20384;-57
2022/03/28 01:21:54;;;;;;;13.90;12.40;;;;;;;4.98;100.00;97898.72;4968654;28;20965;-55
2022/03/28 01:24:22;;;;;;;14.40;12.53;;;;;;;4.91;100.00;97895.75;5004718;28;20346;-56
2022/03/28 01:26:51;;;;;;;15.50;13.90;;;;;;;4.82;100.00;97893.94;5006389;28;20212;-56
2022/03/28 01:29:20;;;;;;;14.00;12.60;;;;;;;4.78;100.00;97889.91;5000031;28;20783;-52
2022/03/28 01:31:49;;;;;;;13.97;12.57;;;;;;;4.79;100.00;97899.44;4999575;28;20210;-55
2022/03/28 01:34:18;;;;;;;14.57;12.90;;;;;;;4.74;100.00;97884.06;5001373;28;20338;-54
2022/03/28 01:36:47;;;;;;;13.57;12.30;;;;;;;4.77;100.00;97893.50;4995188;28;20287;-56
2022/03/28 01:39:16;;;;;;;14.23;12.87;;;;;;;4.77;100.00;97898.75;4959358;28;20242;-52
2022/03/28 01:41:45;;;;;;;14.00;12.63;;;;;;;4.68;100.00;97896.88;5003084;28;20311;-52
2022/03/28 01:44:13;;;;;;;14.17;12.83;;;;;;;4.49;100.00;97885.31;4999728;28;20304;-55
2022/03/28 01:46:44;;;;;;;13.90;12.50;;;;;;;4.47;100.00;97897.72;5009508;28;20197;-55
2022/03/28 01:49:12;;;;;;;14.53;13.23;;;;;;;4.45;100.00;97892.59;5003279;28;20363;-56
2022/03/28 01:51:41;;;;;;;14.70;13.40;;;;;;;4.44;100.00;97883.03;4989865;28;20581;-54
2022/03/28 01:54:09;;;;;;;15.87;12.93;;;;;;;4.54;100.00;97884.91;4966587;28;20526;-55
2022/03/28 01:56:39;;;;;;;13.00;11.80;;;;;;;4.47;100.00;97890.66;5002837;28;20311;-54
2022/03/28 01:59:08;;;;;;;13.83;12.33;;;;;;;4.34;100.00;97885.59;5005529;28;20765;-58
2022/03/28 02:01:36;;;;;;;13.77;12.53;;;;;;;4.38;100.00;97883.56;5005473;28;20307;-56
2022/03/28 02:04:05;;;;;;;15.57;14.17;;;;;;;4.40;100.00;97884.25;4999522;28;20255;-56
2022/03/28 02:06:34;;;;;;;15.50;13.97;;;;;;;4.44;100.00;97884.84;4986438;28;21001;-56
2022/03/28 02:09:03;;;;;;;14.40;12.90;;;;;;;4.40;100.00;97886.06;4990354;28;20212;-56
2022/03/28 02:11:32;;;;;;;14.77;13.30;;;;;;;4.36;100.00;97885.47;4985570;28;20208;-53
2022/03/28 02:14:01;;;;;;;13.90;12.60;;;;;;;4.38;100.00;97886.19;5004822;28;20210;-56
2022/03/28 02:16:29;;;;;;;15.07;13.47;;;;;;;4.40;100.00;97884.25;5001662;28;20413;-59
2022/03/28 02:18:58;;;;;;;15.40;13.93;;;;;;;4.24;100.00;97887.31;4963755;28;1177210;-52
2022/03/28 02:21:26;;;;;;;16.37;13.17;;;;;;;4.12;100.00;97883.09;4989564;28;20950;-58
2022/03/28 02:23:54;;;;;;;14.53;13.13;;;;;;;4.02;100.00;97886.47;5007205;28;20208;-56
2022/03/28 02:26:22;;;;;;;14.47;12.97;;;;;;;4.03;100.00;97889.91;4962114;28;20775;-56
2022/03/28 02:28:50;;;;;;;12.73;11.57;;;;;;;4.15;100.00;97885.47;5001565;28;20212;-56
2022/03/28 02:31:20;;;;;;;14.20;12.80;;;;;;;4.01;100.00;97883.97;5005309;28;21422;-57
2022/03/28 02:33:48;;;;;;;14.87;13.37;;;;;;;3.90;100.00;97888.31;5004132;28;20208;-53
2022/03/28 02:36:16;;;;;;;12.83;11.53;;;;;;;3.85;100.00;97885.22;5003627;28;20224;-54
2022/03/28 02:38:44;;;;;;;15.13;13.57;;;;;;;3.68;100.00;97886.56;4989188;28;20208;-56
2022/03/28 02:41:13;;;;;;;16.27;14.27;;;;;;;3.83;100.00;97887.13;4966412;28;20367;-53
2022/03/28 02:43:40;;;;;;;14.70;13.17;;;;;;;3.86;100.00;97880.78;5005478;28;20212;-54
2022/03/28 02:46:09;;;;;;;15.23;13.57;;;;;;;3.79;100.00;97884.88;5001999;28;20211;-53
2022/03/28 02:48:38;;;;;;;14.43;12.93;;;;;;;3.69;100.00;97880.38;5003905;28;20744;-58
2022/03/28 02:51:06;;;;;;;13.73;12.33;;;;;;;3.69;100.00;97875.13;5001351;28;20220;-56
2022/03/28 02:53:50;;;;;;;13.57;11.67;;;;;;;3.69;100.00;97871.66;4969494;28;20720;-52
2022/03/28 02:56:18;;;;;;;14.77;13.27;;;;;;;3.75;100.00;97873.78;4959544;28;20231;-57
2022/03/28 02:58:46;;;;;;;14.67;13.07;;;;;;;3.70;100.00;97871.56;5000086;28;20776;-57
2022/03/28 03:01:14;;;;;;;12.77;11.47;;;;;;;3.62;100.00;97866.94;5005999;28;20574;-54
2022/03/28 03:03:44;;;;;;;14.50;13.03;;;;;;;3.68;100.00;97867.38;5001312;28;20683;-57
2022/03/28 03:06:12;;;;;;;14.33;12.57;;;;;;;3.66;100.00;97864.06;5007111;28;20565;-55
2022/03/28 03:08:40;;;;;;;13.90;12.40;;;;;;;3.67;100.00;97866.56;4979548;28;20730;-56
2022/03/28 03:11:08;;;;;;;14.93;13.43;;;;;;;3.60;100.00;97858.34;5005928;28;20223;-56
2022/03/28 03:13:36;;;;;;;14.63;13.13;;;;;;;3.38;100.00;97859.25;4957666;28;20436;-57
2022/03/28 03:16:05;;;;;;;13.73;12.40;;;;;;;3.25;100.00;97859.38;5004072;28;20663;-56
2022/03/28 03:18:33;;;;;;;13.77;12.47;;;;;;;3.37;100.00;97857.56;5003813;28;20314;-54
2022/03/28 03:21:02;;;;;;;14.07;12.63;;;;;;;3.30;100.00;97856.41;5002932;28;20250;-53
2022/03/28 03:23:30;;;;;;;13.83;11.93;;;;;;;3.38;100.00;97851.38;4979068;28;20219;-56
2022/03/28 03:26:00;;;;;;;13.10;11.53;;;;;;;3.43;100.00;97848.41;5001051;28;20205;-56
2022/03/28 03:28:28;;;;;;;15.10;12.67;;;;;;;3.43;100.00;97846.59;4957731;28;20238;-59
2022/03/28 03:30:56;;;;;;;12.93;11.73;;;;;;;3.39;100.00;97850.44;4999596;28;20652;-57
2022/03/28 03:33:24;;;;;;;19.00;13.47;;;;;;;3.20;100.00;97843.19;5003975;28;20691;-57
2022/03/28 03:35:53;;;;;;;14.50;13.00;;;;;;;3.11;100.00;97849.16;5002608;28;20315;-55
2022/03/28 03:38:23;;;;;;;14.03;12.67;;;;;;;3.01;100.00;97846.41;4986796;28;20909;-57
2022/03/28 03:40:51;;;;;;;13.77;12.37;;;;;;;3.07;100.00;97851.16;5007324;28;20558;-57
2022/03/28 03:43:21;;;;;;;13.70;12.37;;;;;;;3.12;100.00;97849.03;4960664;28;20227;-54
2022/03/28 03:45:49;;;;;;;13.23;11.93;;;;;;;3.23;100.00;97844.75;5002906;28;20475;-54
2022/03/28 03:48:18;;;;;;;13.50;12.10;;;;;;;3.13;100.00;97848.06;5004486;28;20210;-55
2022/03/28 03:50:47;;;;;;;12.77;11.13;;;;;;;3.20;100.00;97840.56;4974764;28;20238;-55
2022/03/28 03:53:15;;;;;;;15.03;13.43;;;;;;;3.12;100.00;97835.94;5005880;28;20240;-58
2022/03/28 03:55:44;;;;;;;13.97;12.20;;;;;;;3.09;100.00;97838.78;4982150;28;20232;-54
2022/03/28 03:58:13;;;;;;;14.97;13.47;;;;;;;3.06;100.00;97844.28;4959443;28;20595;-56
2022/03/28 04:00:41;;;;;;;13.57;12.23;;;;;;;3.03;100.00;97836.66;4988585;28;20608;-54
2022/03/28 04:03:10;;;;;;;14.17;12.70;;;;;;;3.06;100.00;97836.41;4992893;28;20295;-53
2022/03/28 04:05:38;;;;;;;13.87;12.37;;;;;;;2.95;100.00;97833.81;4999519;28;20211;-53
2022/03/28 04:08:06;;;;;;;12.53;11.33;;;;;;;2.94;100.00;97835.59;5000341;28;20231;-58
2022/03/28 04:10:35;;;;;;;12.23;11.13;;;;;;;2.86;100.00;97836.19;4981557;28;20235;-52
2022/03/28 04:13:05;;;;;;;13.77;12.20;;;;;;;2.76;100.00;97835.22;5001975;28;20297;-57
2022/03/28 04:15:33;;;;;;;13.53;12.23;;;;;;;2.64;100.00;97828.31;4953634;28;20225;-55
2022/03/28 04:18:01;;;;;;;13.43;12.07;;;;;;;2.68;100.00;97825.38;5000518;28;20444;-58
2022/03/28 04:20:32;;;;;;;13.53;12.13;;;;;;;2.71;100.00;97830.38;4997506;28;20263;-54
2022/03/28 04:23:00;;;;;;;15.67;12.57;;;;;;;2.51;100.00;97824.03;5000326;28;20213;-55
2022/03/28 04:25:28;;;;;;;12.63;11.43;;;;;;;2.50;100.00;97819.75;4979812;28;20205;-57
2022/03/28 04:27:56;;;;;;;13.40;12.00;;;;;;;2.50;100.00;97818.91;5001697;28;20385;-55
2022/03/28 04:30:26;;;;;;;13.83;12.40;;;;;;;2.50;100.00;97821.53;4963032;28;20270;-57
2022/03/28 04:32:54;;;;;;;14.83;13.30;;;;;;;2.34;100.00;97819.25;5001738;28;20443;-58
2022/03/28 04:35:22;;;;;;;13.27;11.87;;;;;;;2.13;100.00;97827.78;5000738;28;20212;-58
2022/03/28 04:37:50;;;;;;;13.37;11.93;;;;;;;2.13;100.00;97817.31;5003619;28;20210;-54
2022/03/28 04:40:19;;;;;;;12.27;11.07;;;;;;;2.15;100.00;97812.81;5001812;28;20709;-52
2022/03/28 04:42:48;;;;;;;11.40;10.20;;;;;;;2.24;100.00;97804.25;4979876;28;20219;-54
2022/03/28 04:45:17;;;;;;;13.70;12.33;;;;;;;2.30;100.00;97816.88;4957948;28;20525;-54
2022/03/28 04:47:46;;;;;;;12.77;11.57;;;;;;;2.27;100.00;97816.25;5000720;28;20904;-54
2022/03/28 04:50:14;;;;;;;12.33;11.13;;;;;;;2.18;100.00;97812.56;5001794;28;20592;-57
2022/03/28 04:52:42;;;;;;;12.10;11.00;;;;;;;2.29;100.00;97812.59;5004088;28;20207;-57
2022/03/28 04:55:11;;;;;;;12.90;11.67;;;;;;;2.19;100.00;97810.78;5002770;28;20822;-56
2022/03/28 04:57:40;;;;;;;11.87;10.80;;;;;;;2.02;100.00;97811.09;4982689;28;20228;-55
2022/03/28 05:00:10;;;;;;;14.37;12.97;;;;;;;2.03;100.00;97823.22;5002985;28;20448;-56
2022/03/28 05:02:38;;;;;;;13.17;11.80;;;;;;;1.95;100.00;97815.13;4957956;28;20548;-53
2022/03/28 05:05:08;;;;;;;12.87;11.63;;;;;;;1.95;100.00;97819.53;4995036;28;20216;-57
2022/03/28 05:07:37;;;;;;;13.07;11.87;;;;;;;2.08;100.00;97825.50;5000348;28;20197;-54
2022/03/28 05:10:06;;;;;;;12.60;11.40;;;;;;;2.08;100.00;97824.66;5004876;28;20853;-54
2022/03/28 05:12:35;;;;;;;14.33;12.70;;;;;;;2.08;100.00;97835.09;5006752;28;20653;-54
2022/03/28 05:15:04;;;;;;;14.27;12.30;;;;;;;2.09;100.00;97836.78;4960861;28;20693;-56
2022/03/28 05:17:33;;;;;;;12.27;11.17;;;;;;;2.13;100.00;97828.59;4959316;28;20228;-59
2022/03/28 05:20:01;;;;;;;17.07;13.23;;;;;;;2.20;100.00;97835.97;4977851;28;20247;-53
2022/03/28 05:22:31;;;;;;;13.77;12.47;;;;;;;2.26;100.00;97832.88;5003235;28;21062;-57
2022/03/28 05:25:00;;;;;;;14.00;12.43;;;;;;;2.30;100.00;97835.19;4990260;28;20930;-57
2022/03/28 05:27:28;;;;;;;15.27;13.23;;;;;;;2.48;100.00;97834.75;5006190;28;20291;-54
2022/03/28 05:29:56;;;;;;;13.60;11.90;;;;;;;2.59;100.00;97829.53;4984640;28;20229;-56
2022/03/28 05:32:24;;;;;;;17.90;14.30;;;;;;;2.45;100.00;97832.34;4968569;28;20658;-54
2022/03/28 05:34:52;;;;;;;17.67;15.97;;;;;;;2.43;100.00;97834.22;4995987;28;20623;-54
2022/03/28 05:37:20;;;;;;;15.70;13.30;;;;;;;2.49;100.00;97830.34;5002064;28;20250;-53
2022/03/28 05:39:50;;;;;;;15.53;13.60;;;;;;;2.55;100.00;97829.84;5007992;28;20328;-55
2022/03/28 05:42:19;;;;;;;18.27;14.47;;;;;;;2.75;100.00;97833.56;4991158;28;20211;-55
2022/03/28 05:44:47;;;;;;;23.63;14.13;;;;;;;2.69;100.00;97820.94;4990743;28;20240;-58
2022/03/28 05:47:15;;;;;;;16.03;13.63;;;;;;;2.67;100.00;97831.56;4968516;28;20213;-58
2022/03/28 05:49:43;;;;;;;19.67;13.43;;;;;;;2.88;100.00;97823.81;5005755;28;20232;-56
2022/03/28 05:52:11;;;;;;;16.83;13.20;;;;;;;3.02;100.00;97827.13;5003871;28;20409;-57
2022/03/28 05:54:39;;;;;;;21.13;14.93;;;;;;;3.10;100.00;97823.94;5008873;28;20208;-57
2022/03/28 05:57:08;;;;;;;18.47;15.40;;;;;;;3.19;100.00;97831.88;5002956;28;20224;-57
2022/03/28 05:59:36;;;;;;;17.23;13.20;;;;;;;3.37;100.00;97831.38;4992795;28;20239;-56
2022/03/28 06:02:05;;;;;;;23.00;14.17;;;;;;;3.26;100.00;97831.41;5002242;28;20302;-56
2022/03/28 06:04:34;;;;;;;18.43;14.47;;;;;;;3.31;100.00;97834.50;4961409;28;20227;-58
2022/03/28 06:07:02;;;;;;;16.80;14.23;;;;;;;3.38;100.00;97819.94;5001060;28;20213;-55
2022/03/28 06:09:30;;;;;;;16.43;14.47;;;;;;;3.63;100.00;97823.22;5006646;28;20327;-55
2022/03/28 06:11:58;;;;;;;15.57;13.80;;;;;;;3.87;100.00;97824.78;5001068;28;20205;-54
2022/03/28 06:14:27;;;;;;;20.23;13.57;;;;;;;3.91;100.00;97823.56;4991244;28;20638;-58
2022/03/28 06:16:55;;;;;;;14.40;12.47;;;;;;;3.97;100.00;97827.50;5000403;28;20224;-55
2022/03/28 06:19:23;;;;;;;14.73;13.10;;;;;;;4.23;100.00;97814.84;4960311;28;20254;-57
2022/03/28 06:21:51;;;;;;;14.97;13.47;;;;;;;4.44;100.00;97816.63;5000484;28;20227;-55
2022/03/28 06:24:20;;;;;;;16.57;13.43;;;;;;;4.53;100.00;97815.00;5004306;28;21061;-57
2022/03/28 06:26:48;;;;;;;15.37;12.97;;;;;;;4.67;100.00;97819.06;5006622;28;20291;-54
2022/03/28 06:29:21;;;;;;;14.10;12.00;;;;;;;4.60;100.00;97809.09;5004742;28;21004;-57
2022/03/28 06:31:51;;;;;;;13.97;12.60;;;;;;;4.95;100.00;97820.19;4985460;28;20889;-54
2022/03/28 06:34:19;;;;;;;15.03;13.53;;;;;;;5.31;100.00;97817.09;4960766;28;21674;-57
2022/03/28 06:36:47;;;;;;;16.43;14.77;;;;;;;5.57;100.00;97809.53;4994280;28;20339;-59
2022/03/28 06:39:15;;;;;;;14.47;12.93;;;;;;;5.95;100.00;97807.06;5003493;28;20488;-56
2022/03/28 06:41:43;;;;;;;14.50;13.07;;;;;;;6.53;100.00;97805.34;5007125;28;20212;-57
2022/03/28 06:44:12;;;;;;;14.00;12.70;;;;;;;7.99;100.00;97806.47;5001069;28;20200;-55
2022/03/28 06:46:42;;;;;;;14.50;13.10;;;;;;;8.68;100.00;97807.50;4992422;28;20208;-59
2022/03/28 06:49:12;;;;;;;13.30;12.10;;;;;;;7.96;100.00;97778.56;4957772;28;20906;-53
2022/03/28 06:51:40;;;;;;;14.93;13.43;;;;;;;7.80;100.00;97801.22;5003266;28;20735;-57
2022/03/28 06:54:08;;;;;;;15.57;14.00;;;;;;;7.57;100.00;97798.16;5003919;28;20204;-61
2022/03/28 06:56:37;;;;;;;17.50;14.30;;;;;;;7.44;100.00;97797.72;4979933;28;20282;-53
2022/03/28 06:59:06;;;;;;;15.97;14.37;;;;;;;7.43;100.00;97796.91;4999930;28;20232;-60
2022/03/28 07:01:34;;;;;;;15.07;13.63;;;;;;;7.32;100.00;97795.28;4988897;28;20651;-57
2022/03/28 07:04:03;;;;;;;15.03;13.70;;;;;;;7.49;100.00;97791.03;5005386;28;20319;-57
2022/03/28 07:06:32;;;;;;;13.90;12.60;;;;;;;7.30;100.00;97791.13;4960367;28;20762;-51
2022/03/28 07:09:04;;;;;;;15.50;13.80;;;;;;;7.33;100.00;97789.03;5006624;28;20633;-57
2022/03/28 07:11:32;;;;;;;14.80;13.23;;;;;;;7.66;100.00;97796.44;4999889;28;20204;-54
2022/03/28 07:14:00;;;;;;;14.50;13.17;;;;;;;7.32;100.00;97800.56;5006367;28;20204;-57
2022/03/28 07:16:28;;;;;;;16.00;14.17;;;;;;;7.74;100.00;97793.06;5001982;28;20201;-57
2022/03/28 07:18:57;;;;;;;19.97;14.67;;;;;;;8.03;100.00;97795.44;4984030;28;20267;-57
2022/03/28 07:21:25;;;;;;;16.17;14.47;;;;;;;8.28;100.00;97802.72;4965177;28;20763;-56
2022/03/28 07:23:55;;;;;;;15.30;13.80;;;;;;;8.61;100.00;97793.25;5001661;28;20384;-58
2022/03/28 07:26:23;;;;;;;16.73;15.07;;;;;;;8.53;100.00;97794.03;5007967;28;20596;-55
2022/03/28 07:28:51;;;;;;;16.23;14.57;;;;;;;8.46;100.00;97794.75;5002971;28;20799;-53
2022/03/28 07:31:19;;;;;;;15.80;14.10;;;;;;;8.85;100.00;97799.63;5005085;28;20209;-56
2022/03/28 07:33:48;;;;;;;14.63;13.33;;;;;;;10.49;100.00;97788.69;4989560;28;22181;-55
2022/03/28 07:36:17;;;;;;;14.97;13.60;;;;;;;12.02;100.00;97776.84;4959475;28;20235;-55
2022/03/28 07:38:45;;;;;;;15.40;13.37;;;;;;;13.48;100.00;97782.78;4994973;28;20802;-51
2022/03/28 07:41:15;;;;;;;13.97;12.67;;;;;;;13.48;100.00;97782.78;5003629;28;20342;-57
2022/03/28 07:43:43;;;;;;;15.27;13.67;;;;;;;13.15;100.00;97780.53;5002187;28;20674;-59
2022/03/28 07:46:13;;;;;;;22.00;14.67;;;;;;;13.38;100.00;97775.06;5002011;28;20208;-54
2022/03/28 07:48:41;;;;;;;15.70;13.90;;;;;;;13.48;100.00;97780.13;4981839;28;20780;-55
2022/03/28 07:51:09;;;;;;;13.77;12.47;;;;;;;13.41;100.00;97774.69;5006223;28;20235;-56
2022/03/28 07:53:39;;;;;;;15.57;13.67;;;;;;;12.58;100.00;97772.19;4955136;28;20397;-56
2022/03/28 07:56:07;;;;;;;14.67;12.67;;;;;;;11.76;100.00;97771.06;5000762;28;20204;-56
2022/03/28 07:58:36;;;;;;;14.50;13.07;;;;;;;11.56;100.00;97768.84;5001919;28;20232;-55
2022/03/28 08:01:04;;;;;;;24.07;12.87;;;;;;;11.75;100.00;97764.09;5002430;28;20235;-58
2022/03/28 08:03:32;;;;;;;14.07;12.77;;;;;;;11.32;100.00;97762.69;5000481;28;20238;-53
2022/03/28 08:06:01;;;;;;;15.07;13.70;;;;;;;11.54;100.00;97760.25;4988385;28;20585;-57
2022/03/28 08:08:32;;;;;;;14.20;12.50;;;;;;;11.25;100.00;97751.97;4959431;28;20209;-54
2022/03/28 08:11:00;;;;;;;14.40;13.00;;;;;;;11.24;100.00;97749.47;5001061;28;20579;-57
2022/03/28 08:13:28;;;;;;;15.30;13.80;;;;;;;11.36;100.00;97755.22;5002345;28;20239;-54
2022/03/28 08:15:58;;;;;;;15.70;12.67;;;;;;;11.49;100.00;97750.16;4982221;28;20210;-56
2022/03/28 08:18:26;;;;;;;14.20;12.90;;;;;;;11.32;100.00;97749.41;5004719;28;20844;-54
2022/03/28 08:20:54;;;;;;;14.70;13.33;;;;;;;11.47;100.00;97748.69;4976465;28;20232;-53
2022/03/28 08:23:22;;;;;;;13.03;11.83;;;;;;;11.55;100.00;97749.47;4957099;28;20995;-52
2022/03/28 08:25:51;;;;;;;17.63;12.10;;;;;;;11.17;100.00;97749.34;4997484;28;20209;-52
2022/03/28 08:28:19;;;;;;;15.03;12.80;;;;;;;11.58;100.00;97745.63;4994733;28;20559;-56
2022/03/28 08:30:47;;;;;;;14.43;12.27;;;;;;;11.34;100.00;97738.66;4999282;28;20226;-55
2022/03/28 08:33:17;;;;;;;13.73;12.43;;;;;;;11.51;100.00;97742.03;4998565;28;20208;-60
2022/03/28 08:35:45;;;;;;;17.03;12.80;;;;;;;11.77;100.00;97739.00;4986784;28;20494;-59
2022/03/28 08:38:13;;;;;;;16.07;13.00;;;;;;;12.14;100.00;97726.78;4995242;28;20225;-53
2022/03/28 08:40:42;;;;;;;15.03;13.50;;;;;;;11.93;100.00;97731.91;4966362;28;20224;-56
2022/03/28 08:43:10;;;;;;;14.20;12.80;;;;;;;11.72;100.00;97730.75;4996989;28;20299;-54
2022/03/28 08:45:39;;;;;;;14.37;12.93;;;;;;;12.10;100.00;97732.63;5004126;28;20619;-53
2022/03/28 08:48:08;;;;;;;13.20;11.40;;;;;;;12.41;100.00;97734.31;5002242;28;20208;-56
2022/03/28 08:50:41;;;;;;;14.70;13.10;;;;;;;12.41;100.00;97732.50;5007210;28;20223;-55
2022/03/28 08:53:09;;;;;;;15.03;13.63;;;;;;;12.57;100.00;97728.00;4983654;28;20270;-56
2022/03/28 08:55:39;;;;;;;16.50;14.73;;;;;;;12.43;100.00;97727.81;4968925;28;20223;-57
2022/03/28 08:58:07;;;;;;;14.93;13.57;;;;;;;12.51;100.00;97726.91;5000851;28;20709;-55
2022/03/28 09:00:35;;;;;;;14.27;12.77;;;;;;;12.73;100.00;97727.00;5006632;28;20229;-57
2022/03/28 09:03:04;;;;;;;15.80;12.93;;;;;;;12.79;100.00;97718.28;5002322;28;20205;-54
2022/03/28 09:05:34;;;;;;;14.10;12.70;;;;;;;13.07;100.00;97725.56;5003311;28;20215;-55
2022/03/28 09:08:04;;;;;;;14.10;12.60;;;;;;;13.05;100.00;97718.78;4985912;28;20304;-56
2022/03/28 09:10:38;;;;;;;15.00;13.47;;;;;;;13.21;100.00;97715.06;5007253;28;20224;-61
2022/03/28 09:13:07;;;;;;;17.03;13.67;;;;;;;13.33;100.00;97716.25;4958021;28;20681;-56
2022/03/28 09:15:48;;;;;;;15.20;13.60;;;;;;;13.64;100.00;97704.50;5005236;28;20286;-57
2022/03/28 09:18:23;;;;;;;15.50;13.10;;;;;;;13.71;100.00;97693.91;5002005;28;20900;-56
2022/03/28 09:20:52;;;;;;;16.93;13.40;;;;;;;13.65;100.00;97687.53;5006096;28;20331;-55
2022/03/28 09:23:37;;;;;;;14.00;12.70;;;;;;;14.02;100.00;97701.56;4984790;28;20967;-60
2022/03/28 09:26:16;;;;;;;14.53;13.13;;;;;;;13.66;100.00;97696.31;4971903;28;20235;-58
2022/03/28 09:28:48;;;;;;;14.70;13.07;;;;;;;13.75;100.00;97690.66;5005696;28;20211;-59
2022/03/28 09:31:25;;;;;;;16.00;14.50;;;;;;;14.01;100.00;97686.56;5002669;28;20506;-53
2022/03/28 09:34:02;;;;;;;15.00;13.20;;;;;;;14.29;100.00;97693.72;4997774;28;20279;-55
2022/03/28 09:36:48;;;;;;;14.93;13.23;;;;;;;13.93;100.00;97691.22;5002866;28;20201;-54
2022/03/28 09:39:20;;;;;;;13.67;12.27;;;;;;;14.36;100.00;97691.09;4986590;28;20321;-56
2022/03/28 09:42:00;;;;;;;14.93;12.70;;;;;;;14.59;95.89;97679.34;4968504;28;20216;-60
2022/03/28 09:44:39;;;;;;;14.73;13.17;;;;;;;14.61;95.10;97672.78;5003313;28;20200;-57
2022/03/28 09:47:09;;;;;;;15.27;13.07;;;;;;;14.63;94.45;97672.59;4998556;28;20204;-54
2022/03/28 09:49:37;;;;;;;13.67;11.97;;;;;;;14.99;85.21;97671.53;5000775;28;20224;-57
2022/03/28 09:52:07;;;;;;;14.67;13.13;;;;;;;15.03;90.66;97663.94;5000950;28;20370;-55
2022/03/28 09:54:49;;;;;;;14.30;12.60;;;;;;;14.87;92.99;97662.44;4986587;28;20483;-59
2022/03/28 09:57:21;;;;;;;15.47;13.97;;;;;;;15.01;89.34;97658.81;4960460;28;20854;-56
2022/03/28 09:59:49;;;;;;;14.57;11.67;;;;;;;14.87;84.74;97649.94;5003930;28;20311;-60
2022/03/28 10:02:19;;;;;;;15.57;13.67;;;;;;;15.12;84.08;97654.72;5001235;28;20205;-58
2022/03/28 10:04:49;;;;;;;13.83;12.53;;;;;;;15.18;81.40;97640.59;5005869;28;20295;-59
2022/03/28 10:07:18;;;;;;;16.90;13.90;;;;;;;15.18;81.57;97637.91;4999875;28;20642;-57
2022/03/28 10:09:48;;;;;;;19.20;13.17;;;;;;;15.39;84.19;97635.28;4986026;28;20256;-53
2022/03/28 10:12:16;;;;;;;14.60;12.93;;;;;;;15.52;79.17;97634.44;5002403;28;20223;-56
2022/03/28 10:14:44;;;;;;;15.83;12.43;;;;;;;15.80;74.38;97625.41;4962732;28;20259;-57
2022/03/28 10:17:12;;;;;;;15.57;14.07;;;;;;;15.68;76.21;97601.16;5001758;28;20418;-55
2022/03/28 10:19:41;;;;;;;14.83;12.57;;;;;;;15.69;74.15;97618.84;5002000;28;20252;-53
2022/03/28 10:22:25;;;;;;;15.70;13.13;;;;;;;15.72;71.97;97607.72;5003016;28;20204;-57
2022/03/28 10:24:57;;;;;;;18.83;13.40;;;;;;;16.20;70.74;97612.00;4988910;28;20730;-54
2022/03/28 10:27:26;;;;;;;13.90;12.47;;;;;;;16.15;71.15;97603.81;4997323;28;20402;-59
2022/03/28 10:29:54;;;;;;;13.13;11.83;;;;;;;16.41;63.54;97588.72;4963365;28;20229;-54
2022/03/28 10:32:22;;;;;;;12.93;11.63;;;;;;;16.26;62.76;97589.78;4999910;28;20296;-51
2022/03/28 10:34:52;;;;;;;13.17;11.60;;;;;;;16.51;63.17;97590.94;5001268;28;20204;-57
2022/03/28 10:37:32;;;;;;;14.40;12.80;;;;;;;16.44;63.21;97582.94;4999013;28;20575;-57
2022/03/28 10:40:29;;;;;;;19.80;11.97;;;;;;;16.59;61.75;97582.69;4993596;28;20755;-57
2022/03/28 10:43:07;;;;;;;18.17;11.97;;;;;;;16.87;59.77;97585.00;5000896;28;20601;-55
2022/03/28 10:45:47;;;;;;;13.10;11.70;;;;;;;16.97;60.04;97568.47;4958126;28;20224;-55
2022/03/28 10:48:16;;;;;;;14.37;12.87;;;;;;;16.73;59.80;97570.06;4989116;28;20208;-57
2022/03/28 10:50:48;;;;;;;13.00;11.70;;;;;;;16.94;60.77;97558.22;5002458;28;20230;-56
2022/03/28 10:53:19;;;;;;;13.23;12.00;;;;;;;17.19;58.13;97554.75;4999106;28;20228;-59
2022/03/28 10:55:50;;;;;;;14.67;13.17;;;;;;;17.31;59.17;97553.03;4987620;28;20686;-57
2022/03/28 10:58:21;;;;;;;13.10;11.80;;;;;;;17.39;56.38;97548.44;5000109;28;20500;-59
2022/03/28 11:01:29;;;;;;;12.43;11.23;;;;;;;17.62;52.59;97540.59;4965500;28;20238;-56
2022/03/28 11:04:00;;;;;;;14.17;12.33;;;;;;;17.73;52.61;97530.19;4980312;28;20375;-58
2022/03/28 11:06:49;;;;;;;12.47;10.87;;;;;;;17.76;50.65;97533.25;4996529;28;20295;-57
2022/03/28 11:09:36;;;;;;;11.77;10.33;;;;;;;18.04;51.07;97515.06;5003372;28;20225;-55
2022/03/28 11:12:12;;;;;;;11.13;9.93;;;;;;;17.82;50.93;97515.47;4988529;28;20214;-55
2022/03/28 11:14:46;;;;;;;11.90;10.70;;;;;;;17.86;49.43;97513.97;4958192;28;20952;-57
2022/03/28 11:17:16;;;;;;;11.63;10.53;;;;;;;18.02;48.74;97499.19;5006167;28;20200;-56
2022/03/28 11:19:55;;;;;;;13.07;11.80;;;;;;;17.85;49.12;97500.81;5001814;28;20236;-53
2022/03/28 11:22:50;;;;;;;11.63;10.50;;;;;;;17.74;49.89;97491.66;5005920;28;20641;-55
2022/03/28 11:25:46;;;;;;;12.00;10.87;;;;;;;17.91;49.97;97489.19;5001606;28;20669;-52
2022/03/28 11:28:23;;;;;;;14.80;11.23;;;;;;;17.81;50.11;97481.66;5004471;28;20208;-55
2022/03/28 11:31:03;;;;;;;13.13;11.73;;;;;;;17.68;49.81;97479.94;4964410;28;20536;-55